Fairbanks, AK (99710)

1:45 PM AKST on February 20, 2017 (GMT -0900)
200 Slater Dr. | | Change Station

Elev 450 ft 64.84 °N, 147.70 °W | Updated 2 seconds ago

Haze
Haze
-3.6 °F
Feels Like -4 °F
N
2.9
Wind Variable Wind from SW
Gusts 4.0 mph

Today
High -- | Low -- °F
--% Chance of Precip.
Yesterday
High -- | Low -- °F
Precip. -- in
Pressure 30.07 in
Visibility 6.0 miles
Clouds Few 3100 ft
Overcast 10000 ft
Windchill -4 °F
Dew Point -8 °F
Humidity 79%
Rainfall 0.00 in
Snow Depth Not available.
8:30 AM 5:39 PM
Waning Crescent, 30% visible
METAR PAFB 202158Z AUTO 23005KT 6SM HZ FEW031 OVC100 M21/M25 A3001 RMK AO2 SLP181 T12121248 $
Pressure 30.07 in
Visibility 6.0 miles
Clouds Few 3100 ft
Overcast 10000 ft
Windchill -4 °F
Dew Point -8 °F
Humidity 79%
Rainfall 0.00 in
Snow Depth Not available.
8:30 AM 5:39 PM
Waning Crescent, 30% visible
METAR PAFB 202158Z AUTO 23005KT 6SM HZ FEW031 OVC100 M21/M25 A3001 RMK AO2 SLP181 T12121248 $

Get Your Daily Forecast Email!

Thanks for signing up!

Be on the lookout for a verification email in your inbox.

You'll start receiving the daily forecast at 8 AM.

×

10-Day Weather Forecast

Almanac

Astronomy

Feb. 20, 2017 Rise Set
Actual Time
Civil Twilight
Nautical Twilight
Astronomical Twilight
Moon
Length of Visible Light
Length of Day
Tomorrow will be .
, % of the Moon is Illuminated

Today's Extremes

State Highs State Lows

Community

WunderPhotos

Upload Photos

1,962,540 photos uploaded!

WunderBlog® & News

Nearby

Air Quality

  Air Quality AQ Index Pollutant
Not available.

Snow Depth

Station Depth Elevation

Earthquake Activity

City Distance Mag. Time & Date
Minimum magnitude displayed is 2.5.

Coastal Water Temperatures

Place Temperature

Stations

Nearby Weather Stations

Station Location Temp. Windchill Dew Point Humidity Wind Precip. Elev Updated Type
                   

Watches & Warnings

There are currently no watches in effect.